createdAt,value
2023-04-17T00:00:57.755Z,956.4973145
2023-04-17T00:01:58.587Z,956.4806519
2023-04-17T00:03:00.197Z,956.494751
2023-04-17T00:04:01.166Z,956.5044556
2023-04-17T00:05:02.752Z,956.4865723
2023-04-17T00:06:03.510Z,956.4875488
2023-04-17T00:07:04.389Z,956.4536133
2023-04-17T00:08:05.290Z,956.4752197
2023-04-17T00:09:37.639Z,956.4703979
2023-04-17T00:10:38.552Z,956.4855347
2023-04-17T00:11:40.066Z,956.4403076
2023-04-17T00:12:40.911Z,956.4768677
2023-04-17T00:13:42.489Z,956.4337769
2023-04-17T00:14:44.097Z,956.4282837
2023-04-17T00:15:44.970Z,956.3981934
2023-04-17T00:16:46.673Z,956.3998413
2023-04-17T00:17:48.097Z,956.4185791
2023-04-17T00:18:48.962Z,956.3895264
2023-04-17T00:19:50.491Z,956.3928223
2023-04-17T00:20:51.533Z,956.3798218
2023-04-17T00:21:52.526Z,956.375
2023-04-17T00:22:54.023Z,956.3429565
2023-04-17T00:23:55.718Z,956.3527222
2023-04-17T00:24:56.565Z,956.3720093
2023-04-17T00:25:58.122Z,956.3338013
2023-04-17T00:26:58.997Z,956.3449707
2023-04-17T00:27:59.757Z,956.321228
2023-04-17T00:29:01.607Z,956.3082886
2023-04-17T00:30:02.627Z,956.3216553
2023-04-17T00:31:03.462Z,956.3411865
2023-04-17T00:32:04.354Z,956.3237305
2023-04-17T00:33:36.356Z,956.31073
2023-04-17T00:34:38.052Z,956.2459106
2023-04-17T00:35:38.931Z,956.2966309
2023-04-17T00:36:39.739Z,956.3032837
2023-04-17T00:37:41.101Z,956.291748
2023-04-17T00:38:41.872Z,956.2285767
2023-04-17T00:39:43.583Z,956.2438965
2023-04-17T00:40:44.629Z,956.2081909
2023-04-17T00:41:45.459Z,956.1860962
2023-04-17T00:42:47.082Z,956.1289063
2023-04-17T00:43:48.613Z,956.1693726
2023-04-17T00:44:50.076Z,956.1558838
2023-04-17T00:45:51.050Z,956.1170044
2023-04-17T00:46:51.811Z,956.1434937
2023-04-17T00:47:53.621Z,956.1339111
2023-04-17T00:48:54.388Z,956.1312256
2023-04-17T00:49:55.257Z,956.1073608
2023-04-17T00:50:57.146Z,956.1326294
2023-04-17T00:51:57.940Z,956.1130981
2023-04-17T00:52:59.566Z,956.0803223
2023-04-17T00:54:00.388Z,956.1102905
2023-04-17T00:55:02.234Z,956.0908813
2023-04-17T00:56:04.198Z,956.0753174
2023-04-17T00:57:05.771Z,956.0455322
2023-04-17T00:58:38.106Z,956.0076294
2023-04-17T00:59:38.931Z,956.057373
2023-04-17T01:00:40.569Z,956.0064697
2023-04-17T01:01:41.697Z,955.9924927
2023-04-17T01:02:43.266Z,955.9801636
2023-04-17T01:03:44.260Z,955.9827881
2023-04-17T01:04:45.607Z,955.8532715
2023-04-17T01:05:46.408Z,955.9235229
2023-04-17T01:06:47.299Z,955.8734131
2023-04-17T01:07:49.089Z,955.890625
2023-04-17T01:08:49.980Z,955.875
2023-04-17T01:09:51.477Z,955.892334
2023-04-17T01:10:53.006Z,955.8630981
2023-04-17T01:11:53.844Z,955.8900146
2023-04-17T01:12:55.607Z,955.928833
2023-04-17T01:13:56.544Z,955.8890381
2023-04-17T01:14:58.126Z,955.892334
2023-04-17T01:15:59.022Z,955.8933105
2023-04-17T01:16:59.903Z,955.8546753
2023-04-17T01:18:01.574Z,955.8504028
2023-04-17T01:19:02.428Z,955.8496704
2023-04-17T01:20:03.395Z,955.8518677
2023-04-17T01:21:04.333Z,955.8140869
2023-04-17T01:22:36.596Z,955.774292
2023-04-17T01:23:37.500Z,955.8545532
2023-04-17T01:24:38.346Z,955.774353
2023-04-17T01:25:40.261Z,955.7800293
2023-04-17T01:26:41.220Z,955.7784424
2023-04-17T01:27:43.120Z,955.7670898
2023-04-17T01:28:44.112Z,955.7640381
2023-04-17T01:29:45.101Z,955.7704468
2023-04-17T01:30:46.044Z,955.7769775
2023-04-17T01:31:46.957Z,955.7753296
2023-04-17T01:32:48.665Z,955.8060303
2023-04-17T01:33:49.469Z,955.774292
2023-04-17T01:34:51.094Z,955.772644
2023-04-17T01:35:52.640Z,955.78125
2023-04-17T01:36:53.653Z,955.810791
2023-04-17T01:37:55.595Z,955.7644043
2023-04-17T01:38:56.404Z,955.7478027
2023-04-17T01:39:58.077Z,955.7608032
2023-04-17T01:40:58.983Z,955.7745361
2023-04-17T01:42:00.645Z,955.7719727
2023-04-17T01:43:01.709Z,955.7729492
2023-04-17T01:44:02.677Z,955.8334351
2023-04-17T01:45:04.241Z,955.7902222
2023-04-17T01:46:35.776Z,955.7667236
2023-04-17T01:47:37.748Z,955.7676392
2023-04-17T01:48:39.069Z,955.7984619
2023-04-17T01:49:39.990Z,955.7796631
2023-04-17T01:50:40.921Z,955.7471924
2023-04-17T01:51:41.811Z,955.7487793
2023-04-17T01:52:43.615Z,955.7068481
2023-04-17T01:53:44.556Z,955.7753296
2023-04-17T01:54:45.478Z,955.7310181
2023-04-17T01:55:47.166Z,955.7228394
2023-04-17T01:56:48.556Z,955.7179565
2023-04-17T01:57:50.088Z,955.7601318
2023-04-17T01:58:50.912Z,955.7084351
2023-04-17T01:59:52.510Z,955.7185669
2023-04-17T02:00:53.518Z,955.7202148
2023-04-17T02:01:54.435Z,955.7081909
2023-04-17T02:02:56.217Z,955.6911011
2023-04-17T02:03:57.332Z,955.692627
2023-04-17T02:04:58.028Z,955.7146606
2023-04-17T02:05:59.594Z,955.7248535
2023-04-17T02:07:01.088Z,955.7270508
2023-04-17T02:08:02.115Z,955.6907959
2023-04-17T02:09:03.573Z,955.7053223
2023-04-17T02:10:36.070Z,955.689209
2023-04-17T02:11:36.985Z,955.7327881
2023-04-17T02:12:37.906Z,955.7198486
2023-04-17T02:13:38.668Z,955.6929932
2023-04-17T02:14:39.647Z,955.6880493
2023-04-17T02:15:41.696Z,955.706543
2023-04-17T02:16:43.903Z,955.6704102
2023-04-17T02:17:45.678Z,955.6515503
2023-04-17T02:18:46.432Z,955.680603
2023-04-17T02:19:47.296Z,955.6757202
2023-04-17T02:20:48.348Z,955.6617432
2023-04-17T02:21:49.404Z,955.6804199
2023-04-17T02:22:51.109Z,955.6439209
2023-04-17T02:23:52.784Z,955.6621704
2023-04-17T02:24:54.514Z,955.6307983
2023-04-17T02:25:56.154Z,955.6414185
2023-04-17T02:26:57.112Z,955.6662598
2023-04-17T02:27:58.666Z,955.6484985
2023-04-17T02:28:59.522Z,955.6386108
2023-04-17T02:30:01.069Z,955.6040649
2023-04-17T02:31:02.151Z,955.6500244
2023-04-17T02:32:03.020Z,955.6533813
2023-04-17T02:33:35.158Z,955.6316528
2023-04-17T02:34:36.071Z,955.6679077
2023-04-17T02:35:37.625Z,955.6257935
2023-04-17T02:36:38.611Z,955.6499023
2023-04-17T02:37:40.171Z,955.6676636
2023-04-17T02:38:41.600Z,955.6422119
2023-04-17T02:39:43.079Z,955.6793823
2023-04-17T02:40:45.140Z,955.6412354
2023-04-17T02:41:46.236Z,955.715332
2023-04-17T02:42:47.353Z,955.6480713
2023-04-17T02:43:49.166Z,955.710022
2023-04-17T02:44:50.091Z,955.6727905
2023-04-17T02:45:51.611Z,955.7028198
2023-04-17T02:46:53.281Z,955.7270508
2023-04-17T02:47:55.304Z,955.7001343
2023-04-17T02:48:56.003Z,955.6582642
2023-04-17T02:49:57.500Z,955.6468506
2023-04-17T02:50:58.453Z,955.637207
2023-04-17T02:52:00.168Z,955.6300659
2023-04-17T02:53:01.197Z,955.6398315
2023-04-17T02:54:02.636Z,955.6303101
2023-04-17T02:55:03.536Z,955.6690063
2023-04-17T02:56:35.624Z,955.6620483
2023-04-17T02:57:37.212Z,955.6626587
2023-04-17T02:58:38.097Z,955.6921997
2023-04-17T02:59:39.045Z,955.6809082
2023-04-17T03:00:40.012Z,955.685791
2023-04-17T03:01:41.067Z,955.6364136
2023-04-17T03:02:42.786Z,955.6604614
2023-04-17T03:03:43.958Z,955.6098633
2023-04-17T03:04:44.680Z,955.6071777
2023-04-17T03:05:46.154Z,955.623291
2023-04-17T03:06:47.053Z,955.6352539
2023-04-17T03:07:48.608Z,955.5898438
2023-04-17T03:08:49.532Z,955.5940552
2023-04-17T03:09:51.271Z,955.5704956
2023-04-17T03:10:53.186Z,955.5413818
2023-04-17T03:11:54.325Z,955.600708
2023-04-17T03:12:56.119Z,955.5413818
2023-04-17T03:13:57.644Z,955.5204468
2023-04-17T03:14:59.109Z,955.5360107
2023-04-17T03:16:00.775Z,955.5026855
2023-04-17T03:17:01.627Z,955.505249
2023-04-17T03:18:03.060Z,955.4896851
2023-04-17T03:19:35.000Z,955.4653931
2023-04-17T03:20:36.628Z,955.4943848
2023-04-17T03:21:37.733Z,955.5015869
2023-04-17T03:22:39.654Z,955.4684448
2023-04-17T03:23:40.489Z,955.4659424
2023-04-17T03:24:41.394Z,955.4799805
2023-04-17T03:25:43.142Z,955.4751587
2023-04-17T03:26:44.291Z,955.4417114
2023-04-17T03:27:46.096Z,955.4385376
2023-04-17T03:28:46.998Z,955.4368896
2023-04-17T03:29:47.978Z,955.4664307
2023-04-17T03:30:48.781Z,955.4605713
2023-04-17T03:31:49.824Z,955.4540405
2023-04-17T03:32:51.820Z,955.4734497
2023-04-17T03:33:52.640Z,955.4486084
2023-04-17T03:34:53.475Z,955.4631348
2023-04-17T03:35:55.126Z,955.4324951
2023-04-17T03:36:56.116Z,955.4353027
2023-04-17T03:37:57.043Z,955.3771362
2023-04-17T03:38:58.460Z,955.404541
2023-04-17T03:40:00.260Z,955.3851318
2023-04-17T03:41:02.111Z,955.4159546
2023-04-17T03:42:03.583Z,955.4142456
2023-04-17T03:43:35.573Z,955.4126587
2023-04-17T03:44:36.783Z,955.4346924
2023-04-17T03:45:37.802Z,955.4595337
2023-04-17T03:46:39.604Z,955.4362793
2023-04-17T03:47:41.150Z,955.4556274
2023-04-17T03:48:41.960Z,955.4782104
2023-04-17T03:49:42.865Z,955.487793
2023-04-17T03:50:44.676Z,955.473999
2023-04-17T03:51:45.570Z,955.4862671
2023-04-17T03:52:47.131Z,955.5354614
2023-04-17T03:53:48.141Z,955.4603271
2023-04-17T03:54:49.040Z,955.4852905
2023-04-17T03:55:51.300Z,955.5267334
2023-04-17T03:56:52.223Z,955.451416
2023-04-17T03:57:54.133Z,955.4639282
2023-04-17T03:58:55.637Z,955.4487305
2023-04-17T03:59:56.452Z,955.4665527
2023-04-17T04:00:57.408Z,955.4396362
2023-04-17T04:01:58.569Z,955.4586182
2023-04-17T04:03:00.134Z,955.4309082
2023-04-17T04:04:01.067Z,955.3922119
2023-04-17T04:05:02.640Z,955.388916
2023-04-17T04:06:34.797Z,955.4326782
2023-04-17T04:07:35.826Z,955.4277344
2023-04-17T04:08:37.493Z,955.4390869
2023-04-17T04:09:38.418Z,955.4309082
2023-04-17T04:10:40.145Z,955.4421997
2023-04-17T04:11:41.040Z,955.4490356
2023-04-17T04:12:42.681Z,955.4474487
2023-04-17T04:13:44.148Z,955.4230957
2023-04-17T04:14:47.448Z,955.4285889
2023-04-17T04:15:48.538Z,955.4259644
2023-04-17T04:16:50.128Z,955.3995361
2023-04-17T04:17:51.760Z,955.4000244
2023-04-17T04:18:52.458Z,955.4448242
2023-04-17T04:19:53.317Z,955.4458008
2023-04-17T04:20:54.299Z,955.4204712
2023-04-17T04:21:55.254Z,955.4033813
2023-04-17T04:22:57.068Z,955.4151001
2023-04-17T04:23:57.864Z,955.4486084
2023-04-17T04:24:58.734Z,955.4102173
2023-04-17T04:25:59.714Z,955.4017334
2023-04-17T04:27:01.597Z,955.4350586
2023-04-17T04:28:03.656Z,955.4373169
2023-04-17T04:29:36.077Z,955.3848267
2023-04-17T04:30:37.642Z,955.3920288
2023-04-17T04:31:38.824Z,955.3848267
2023-04-17T04:32:40.678Z,955.4107056
2023-04-17T04:33:41.516Z,955.4350586
2023-04-17T04:34:42.484Z,955.427002
2023-04-17T04:35:43.950Z,955.3984985
2023-04-17T04:36:45.665Z,955.4092407
2023-04-17T04:37:47.272Z,955.4195557
2023-04-17T04:38:48.113Z,955.4382324
2023-04-17T04:39:49.589Z,955.4107056
2023-04-17T04:40:51.628Z,955.3989868
2023-04-17T04:41:52.625Z,955.4259644
2023-04-17T04:42:54.126Z,955.4193115
2023-04-17T04:43:55.066Z,955.4064941
2023-04-17T04:44:56.062Z,955.4468994
2023-04-17T04:45:57.117Z,955.4604492
2023-04-17T04:46:58.619Z,955.4047852
2023-04-17T04:48:00.184Z,955.4337769
2023-04-17T04:49:01.638Z,955.4554443
2023-04-17T04:50:03.007Z,955.4715576
2023-04-17T04:51:34.410Z,955.5006104
2023-04-17T04:52:38.318Z,955.4753418
2023-04-17T04:53:40.170Z,955.4865112
2023-04-17T04:54:41.606Z,955.4707031
2023-04-17T04:55:42.554Z,955.4680176
2023-04-17T04:56:44.707Z,955.5056763
2023-04-17T04:57:45.654Z,955.5029907
2023-04-17T04:58:47.142Z,955.4884644
2023-04-17T04:59:48.042Z,955.5072021
2023-04-17T05:00:49.149Z,955.4766235
2023-04-17T05:01:50.010Z,955.4749146
2023-04-17T05:02:51.828Z,955.4645996
2023-04-17T05:03:52.914Z,955.4796753
2023-04-17T05:04:53.579Z,955.4743042
2023-04-17T05:05:54.674Z,955.4840698
2023-04-17T05:06:56.732Z,955.5379639
2023-04-17T05:07:58.584Z,955.5023193
2023-04-17T05:08:59.846Z,955.5454712
2023-04-17T05:10:01.016Z,955.4915771
2023-04-17T05:11:33.459Z,955.5740356
2023-04-17T05:12:34.349Z,955.5878296
2023-04-17T05:13:36.028Z,955.5550537
2023-04-17T05:14:37.038Z,955.5856934
2023-04-17T05:15:38.601Z,955.6157837
2023-04-17T05:16:40.167Z,955.578125
2023-04-17T05:17:41.096Z,955.5904541
2023-04-17T05:18:42.626Z,955.6189575
2023-04-17T05:19:44.324Z,955.6116943
2023-04-17T05:20:45.227Z,955.6242065
2023-04-17T05:21:46.195Z,955.6436157
2023-04-17T05:22:48.095Z,955.6063843
2023-04-17T05:23:48.975Z,955.6159668
2023-04-17T05:24:49.917Z,955.6149902
2023-04-17T05:25:51.026Z,955.5907593
2023-04-17T05:26:52.670Z,955.5847778
2023-04-17T05:27:53.777Z,955.5930176
2023-04-17T05:28:55.588Z,955.5681763
2023-04-17T05:29:56.534Z,955.6071167
2023-04-17T05:30:57.511Z,955.576416
2023-04-17T05:31:59.198Z,955.5812988
2023-04-17T05:33:00.693Z,955.5564575
2023-04-17T05:34:01.522Z,955.6016235
2023-04-17T05:35:33.076Z,955.6020508
2023-04-17T05:36:34.031Z,955.630127
2023-04-17T05:37:38.001Z,955.6052856
2023-04-17T05:38:39.635Z,955.5722046
2023-04-17T05:39:41.114Z,955.5825195
2023-04-17T05:40:43.188Z,955.5814209
2023-04-17T05:41:44.359Z,955.5574951
2023-04-17T05:42:45.258Z,955.5758057
2023-04-17T05:43:47.022Z,955.6090698
2023-04-17T05:44:48.707Z,955.6182861
2023-04-17T05:45:49.797Z,955.5889282
2023-04-17T05:46:50.632Z,955.6428223
2023-04-17T05:47:52.160Z,955.6514893
2023-04-17T05:48:53.555Z,955.6367798
2023-04-17T05:49:54.455Z,955.6470337
2023-04-17T05:50:55.427Z,955.6292114
2023-04-17T05:51:56.458Z,955.6356201
2023-04-17T05:52:58.092Z,955.6607666
2023-04-17T05:53:58.983Z,955.6398315
2023-04-17T05:54:59.855Z,955.6657104
2023-04-17T05:56:00.794Z,955.6447144
2023-04-17T05:57:03.196Z,955.6560059
2023-04-17T05:58:35.149Z,955.677002
2023-04-17T05:59:35.972Z,955.7002563
2023-04-17T06:00:36.924Z,955.6501465
2023-04-17T06:01:37.890Z,955.7019653
2023-04-17T06:02:38.959Z,955.6842041
2023-04-17T06:03:40.855Z,955.6630249
2023-04-17T06:04:42.102Z,955.6846924
2023-04-17T06:05:42.787Z,955.692749
2023-04-17T06:06:44.085Z,955.6846924
2023-04-17T06:07:45.595Z,955.6846924
2023-04-17T06:08:47.126Z,955.6959229
2023-04-17T06:09:48.679Z,955.6790771
2023-04-17T06:10:50.157Z,955.668457
2023-04-17T06:11:51.033Z,955.6500244
2023-04-17T06:12:52.534Z,955.6501465
2023-04-17T06:13:54.254Z,955.6453247
2023-04-17T06:14:55.182Z,955.6690674
2023-04-17T06:15:56.205Z,955.6599731
2023-04-17T06:16:58.196Z,955.6454468
2023-04-17T06:17:59.764Z,955.6462402
2023-04-17T06:19:00.544Z,955.6623535
2023-04-17T06:20:01.857Z,955.5861206
2023-04-17T06:21:33.472Z,955.6282959
2023-04-17T06:22:34.449Z,955.6239014
2023-04-17T06:23:36.088Z,955.5843506
2023-04-17T06:24:37.100Z,955.5638428
2023-04-17T06:25:38.358Z,955.5471802
2023-04-17T06:26:39.356Z,955.5882568
2023-04-17T06:27:41.043Z,955.6143188
2023-04-17T06:28:42.489Z,955.6185913
2023-04-17T06:29:43.330Z,955.5615845
2023-04-17T06:30:44.391Z,955.6086426
2023-04-17T06:31:45.300Z,955.569397
2023-04-17T06:32:47.232Z,955.5974121
2023-04-17T06:33:48.009Z,955.5620117
2023-04-17T06:34:59.197Z,955.595459
2023-04-17T06:35:50.471Z,955.5734863
2023-04-17T06:36:51.476Z,955.5834961
2023-04-17T06:37:53.079Z,955.5761108
2023-04-17T06:38:55.101Z,955.5854492
2023-04-17T06:39:56.581Z,955.590332
2023-04-17T06:40:57.615Z,955.5737305
2023-04-17T06:41:58.720Z,955.5319824
2023-04-17T06:43:00.654Z,955.5424805
2023-04-17T06:44:32.276Z,955.552124
2023-04-17T06:45:33.224Z,955.5246582
2023-04-17T06:46:35.164Z,955.4973145
2023-04-17T06:47:37.147Z,955.5303345
2023-04-17T06:48:37.990Z,955.5577393
2023-04-17T06:49:39.629Z,955.5320435
2023-04-17T06:50:40.635Z,955.4765625
2023-04-17T06:51:41.590Z,955.5144043
2023-04-17T06:52:42.478Z,955.4923706
2023-04-17T06:53:44.198Z,955.5140381
2023-04-17T06:54:45.048Z,955.5006104
2023-04-17T06:55:46.171Z,955.559082
2023-04-17T06:56:47.175Z,955.5613403
2023-04-17T06:57:49.156Z,955.5246582
2023-04-17T06:58:50.612Z,955.53302
2023-04-17T06:59:52.086Z,955.5406494
2023-04-17T07:00:53.029Z,955.5393677
2023-04-17T07:01:54.826Z,955.5321045
2023-04-17T07:02:56.757Z,955.5172119
2023-04-17T07:03:57.575Z,955.5198364
2023-04-17T07:04:58.542Z,955.5300903
2023-04-17T07:05:59.360Z,955.5474854
2023-04-17T07:07:00.388Z,955.5197754
2023-04-17T07:08:32.525Z,955.5023193
2023-04-17T07:09:34.460Z,955.5041504
2023-04-17T07:10:36.124Z,955.5510254
2023-04-17T07:11:37.138Z,955.5435181
2023-04-17T07:12:38.207Z,955.5222168
2023-04-17T07:13:40.131Z,955.534668
2023-04-17T07:14:41.637Z,955.5145264
2023-04-17T07:15:42.581Z,955.541626
2023-04-17T07:16:43.587Z,955.5733032
2023-04-17T07:17:45.242Z,955.5324097
2023-04-17T07:18:46.184Z,955.5776367
2023-04-17T07:19:47.013Z,955.513916
2023-04-17T07:20:47.884Z,955.5421143
2023-04-17T07:21:48.824Z,955.5264893
2023-04-17T07:22:50.623Z,955.55896
2023-04-17T07:23:51.496Z,955.5460815
2023-04-17T07:24:53.221Z,955.5657959
2023-04-17T07:25:55.181Z,955.5565796
2023-04-17T07:26:57.104Z,955.5567017
2023-04-17T07:27:58.509Z,955.5351563
2023-04-17T07:28:59.992Z,955.5671997
2023-04-17T07:30:31.829Z,955.5595093
2023-04-17T07:31:32.844Z,955.6087646
2023-04-17T07:32:34.105Z,955.5459595
2023-04-17T07:33:36.915Z,955.5493164
2023-04-17T07:34:36.561Z,955.5408325
2023-04-17T07:35:38.126Z,955.5651855
2023-04-17T07:36:39.622Z,955.5471191
2023-04-17T07:37:41.117Z,955.557373
2023-04-17T07:38:42.036Z,955.5445557
2023-04-17T07:39:44.138Z,955.5531006
2023-04-17T07:40:45.132Z,955.5700684
2023-04-17T07:41:45.951Z,955.5161133
2023-04-17T07:42:46.807Z,955.5571899
2023-04-17T07:43:48.654Z,955.546814
2023-04-17T07:44:49.692Z,955.5547485
2023-04-17T07:45:50.718Z,955.5358887
2023-04-17T07:46:51.743Z,955.5753174
2023-04-17T07:47:53.195Z,955.5176392
2023-04-17T07:48:54.210Z,955.5476685
2023-04-17T07:49:56.223Z,955.5579834
2023-04-17T07:50:57.276Z,955.541748
2023-04-17T07:51:58.155Z,955.557373
2023-04-17T07:52:59.569Z,955.5321045
2023-04-17T07:54:01.612Z,955.5656738
2023-04-17T07:55:33.178Z,955.5926514
2023-04-17T07:56:34.131Z,955.5598145
2023-04-17T07:57:35.140Z,955.572998
2023-04-17T07:58:36.786Z,955.5717163
2023-04-17T07:59:37.737Z,955.5368652
2023-04-17T08:00:39.602Z,955.579895
2023-04-17T08:01:41.267Z,955.546936
2023-04-17T08:02:42.217Z,955.536377
2023-04-17T08:03:44.075Z,955.5488281
2023-04-17T08:04:45.716Z,955.53479
2023-04-17T08:05:47.402Z,955.5010986
2023-04-17T08:06:48.379Z,955.5145264
2023-04-17T08:07:49.442Z,955.5318604
2023-04-17T08:08:51.225Z,955.5320435
2023-04-17T08:09:53.318Z,955.5136719
2023-04-17T08:10:54.460Z,955.503418
2023-04-17T08:11:57.878Z,955.4915771
2023-04-17T08:12:57.099Z,955.4927368
2023-04-17T08:13:58.124Z,955.4835815
2023-04-17T08:14:59.679Z,955.50354
2023-04-17T08:16:31.442Z,955.4593506
2023-04-17T08:17:32.657Z,955.475769
2023-04-17T08:18:34.001Z,955.460083
2023-04-17T08:19:34.783Z,955.4667358
2023-04-17T08:20:36.648Z,955.4679565
2023-04-17T08:21:37.662Z,955.4927979
2023-04-17T08:22:39.155Z,955.4631348
2023-04-17T08:23:40.608Z,955.5010376
2023-04-17T08:24:41.579Z,955.5167236
2023-04-17T08:25:42.650Z,955.489624
2023-04-17T08:26:44.152Z,955.4879761
2023-04-17T08:27:45.188Z,955.4806519
2023-04-17T08:28:47.167Z,955.501709
2023-04-17T08:29:48.158Z,955.4085083
2023-04-17T08:30:49.661Z,955.5050049
2023-04-17T08:31:57.455Z,955.4935913
2023-04-17T08:32:52.124Z,955.5286865
2023-04-17T08:34:06.193Z,955.4517212
2023-04-17T08:34:54.093Z,955.4554443
2023-04-17T08:35:54.975Z,955.5014038
2023-04-17T08:36:55.977Z,955.4831543
2023-04-17T08:37:57.614Z,955.5133667
2023-04-17T08:38:58.396Z,955.5376587
2023-04-17T08:40:00.627Z,955.5128174
2023-04-17T08:41:32.569Z,955.5183105
2023-04-17T08:42:33.639Z,955.5376587
2023-04-17T08:43:35.030Z,955.5252075
2023-04-17T08:44:35.941Z,955.5014038
2023-04-17T08:45:36.732Z,955.5532837
2023-04-17T08:46:37.629Z,955.5482788
2023-04-17T08:47:38.460Z,955.5606079
2023-04-17T08:48:40.082Z,955.5548706
2023-04-17T08:49:40.963Z,955.607666
2023-04-17T08:50:42.644Z,955.5963135
2023-04-17T08:51:43.942Z,955.6021729
2023-04-17T08:52:45.585Z,955.5802612
2023-04-17T08:53:46.433Z,955.5722046
2023-04-17T08:54:50.611Z,955.5700073
2023-04-17T08:55:49.131Z,955.5921631
2023-04-17T08:56:50.247Z,955.5765381
2023-04-17T08:57:52.169Z,955.6068726
2023-04-17T08:58:53.274Z,955.6237793
2023-04-17T08:59:54.501Z,955.534668
2023-04-17T09:00:55.637Z,955.576416
2023-04-17T09:01:57.096Z,955.5571289
2023-04-17T09:02:59.070Z,955.5275879
2023-04-17T09:04:31.255Z,955.4625244
2023-04-17T09:05:32.103Z,955.4517212
2023-04-17T09:06:33.346Z,955.4206543
2023-04-17T09:07:34.430Z,955.4163818
2023-04-17T09:08:36.013Z,955.4543457
2023-04-17T09:09:37.029Z,955.5002441
2023-04-17T09:10:38.575Z,955.4674072
2023-04-17T09:11:40.420Z,955.4631348
2023-04-17T09:12:41.388Z,955.4924927
2023-04-17T09:13:43.117Z,955.4629517
2023-04-17T09:14:44.198Z,955.4241943
2023-04-17T09:15:45.529Z,955.4248657
2023-04-17T09:16:47.900Z,955.4685669
2023-04-17T09:17:49.161Z,955.4788818
2023-04-17T09:18:50.603Z,955.4640503
2023-04-17T09:19:51.885Z,955.4413452
2023-04-17T09:20:53.853Z,955.4193726
2023-04-17T09:21:55.390Z,955.4550781
2023-04-17T09:22:57.021Z,955.4018555
2023-04-17T09:23:57.993Z,955.4213867
2023-04-17T09:24:59.777Z,955.3908081
2023-04-17T09:26:32.129Z,955.4007568
2023-04-17T09:27:33.580Z,955.3776855
2023-04-17T09:28:35.042Z,955.3735352
2023-04-17T09:29:36.453Z,955.3432617
2023-04-17T09:30:37.303Z,955.3456421
2023-04-17T09:31:38.196Z,955.3488159
2023-04-17T09:32:38.886Z,955.3494263
2023-04-17T09:33:40.493Z,955.3442383
2023-04-17T09:34:41.422Z,955.3647461
2023-04-17T09:35:42.357Z,955.3581543
2023-04-17T09:36:44.165Z,955.4036865
2023-04-17T09:37:45.636Z,955.3723145
2023-04-17T09:38:46.403Z,955.3782959
2023-04-17T09:39:48.034Z,955.3723145
2023-04-17T09:40:49.644Z,955.3881226
2023-04-17T09:41:51.101Z,955.4000244
2023-04-17T09:42:52.580Z,955.4450073
2023-04-17T09:43:53.457Z,955.3898926
2023-04-17T09:44:55.112Z,955.3933716
2023-04-17T09:45:55.982Z,955.4106445
2023-04-17T09:46:56.894Z,955.3795166
2023-04-17T09:47:58.665Z,955.4259644
2023-04-17T09:48:59.872Z,955.3621826
2023-04-17T09:50:31.401Z,955.3389282
2023-04-17T09:51:33.054Z,955.3990479
2023-04-17T09:52:34.548Z,955.3894043
2023-04-17T09:53:35.393Z,955.3562622
2023-04-17T09:54:37.265Z,955.4038086
2023-04-17T09:55:38.493Z,955.4034424
2023-04-17T09:56:39.215Z,955.3487549
2023-04-17T09:57:40.499Z,955.3546753
2023-04-17T09:58:41.567Z,955.3858643
2023-04-17T09:59:42.466Z,955.317749
2023-04-17T10:00:43.457Z,955.3527222
2023-04-17T10:01:45.455Z,955.3943481
2023-04-17T10:02:46.464Z,955.3796387
2023-04-17T10:03:48.412Z,955.3822632
2023-04-17T10:04:48.945Z,955.3682251
2023-04-17T10:05:50.604Z,955.3962402
2023-04-17T10:06:51.510Z,955.3574219
2023-04-17T10:07:52.273Z,955.3320313
2023-04-17T10:08:54.238Z,955.3556519
2023-04-17T10:09:56.082Z,955.3081055
2023-04-17T10:10:56.990Z,955.3572388
2023-04-17T10:11:58.563Z,955.3546143
2023-04-17T10:13:00.585Z,955.3425903
2023-04-17T10:14:31.875Z,955.3545532
2023-04-17T10:15:33.558Z,955.3139038
2023-04-17T10:16:34.657Z,955.319397
2023-04-17T10:17:35.268Z,955.3178711
2023-04-17T10:18:36.966Z,955.3540649
2023-04-17T10:19:38.873Z,955.321228
2023-04-17T10:20:39.795Z,955.2943726
2023-04-17T10:21:41.608Z,955.2625122
2023-04-17T10:22:42.449Z,955.2679443
2023-04-17T10:23:44.168Z,955.2815552
2023-04-17T10:24:46.144Z,955.2588501
2023-04-17T10:25:47.111Z,955.260498
2023-04-17T10:26:48.574Z,955.2393799
2023-04-17T10:27:49.356Z,955.2271118
2023-04-17T10:28:51.115Z,955.2514648
2023-04-17T10:29:52.053Z,955.3127441
2023-04-17T10:30:52.928Z,955.2370605
2023-04-17T10:31:54.578Z,955.3272095
2023-04-17T10:32:55.402Z,955.2817383
2023-04-17T10:33:57.084Z,955.3087769
2023-04-17T10:34:58.638Z,955.2634277
2023-04-17T10:36:31.029Z,955.2181396
2023-04-17T10:37:31.847Z,955.2288208
2023-04-17T10:38:32.801Z,955.2456055
2023-04-17T10:39:34.668Z,955.2449951
2023-04-17T10:40:36.134Z,955.242981
2023-04-17T10:41:37.604Z,955.2851563
2023-04-17T10:42:38.850Z,955.2962646
2023-04-17T10:43:40.086Z,955.3153076
2023-04-17T10:44:42.132Z,955.3151855
2023-04-17T10:45:43.121Z,955.3027954
2023-04-17T10:46:44.591Z,955.3325806
2023-04-17T10:47:45.493Z,955.2619019
2023-04-17T10:48:46.615Z,955.2952881
2023-04-17T10:49:47.499Z,955.303772
2023-04-17T10:50:48.413Z,955.253418
2023-04-17T10:51:50.157Z,955.2333374
2023-04-17T10:52:51.093Z,955.2943726
2023-04-17T10:53:54.590Z,955.2451782
2023-04-17T10:54:55.704Z,955.2435913
2023-04-17T10:55:56.612Z,955.2310791
2023-04-17T10:56:57.457Z,955.2418823
2023-04-17T10:57:58.448Z,955.2039185
2023-04-17T10:59:30.325Z,955.1810913
2023-04-17T11:00:31.286Z,955.2092896
2023-04-17T11:01:33.208Z,955.2137451
2023-04-17T11:02:34.110Z,955.1828003
2023-04-17T11:03:35.814Z,955.173645
2023-04-17T11:04:36.782Z,955.2092285
2023-04-17T11:05:38.665Z,955.1498413
2023-04-17T11:06:39.490Z,955.156311
2023-04-17T11:07:41.095Z,955.1450195
2023-04-17T11:08:41.998Z,955.1379395
2023-04-17T11:09:43.671Z,955.1702881
2023-04-17T11:10:44.538Z,955.1271362
2023-04-17T11:11:46.173Z,955.109314
2023-04-17T11:12:47.101Z,955.0931396
2023-04-17T11:13:48.012Z,955.1174927
2023-04-17T11:14:49.602Z,955.1418457
2023-04-17T11:15:50.545Z,955.1228027
2023-04-17T11:16:51.472Z,955.1569824
2023-04-17T11:17:52.190Z,955.1060791
2023-04-17T11:18:53.691Z,955.1542358